Terminal Aerodrome Forecast
Issued by NWS Cleveland, OH

Home | Current Version | Previous Version | Graphics & Text | Print | Product List | Glossary Off
Versions: 1 2 3 4 5 6 7 8 9 10 11 12 13 14 15 16

000
FTUS41 KCLE 241727
TAFMFD
TAF
KMFD 241727Z 2418/2518 26010G18KT P6SM SCT050
     FM250100 25008KT P6SM FEW250
     FM251500 25011KT P6SM SCT100=

USA.gov is the U.S. government's official web portal to all federal, state and local government web resources and services.